createdAt,value
2022-11-08T00:00:44.241Z,52.94
2022-11-08T00:03:11.413Z,52.80
2022-11-08T00:05:56.929Z,52.85
2022-11-08T00:08:42.338Z,53.05
2022-11-08T00:11:27.751Z,53.16
2022-11-08T00:13:57.329Z,53.00
2022-11-08T00:16:25.485Z,52.94
2022-11-08T00:18:52.523Z,52.96
2022-11-08T00:21:19.588Z,53.32
2022-11-08T00:23:47.171Z,53.23
2022-11-08T00:26:14.207Z,53.25
2022-11-08T00:28:41.287Z,53.09
2022-11-08T00:31:08.425Z,53.12
2022-11-08T00:33:35.756Z,53.18
2022-11-08T00:36:03.832Z,53.27
2022-11-08T00:38:30.918Z,53.43
2022-11-08T00:40:57.979Z,53.27
2022-11-08T00:43:25.162Z,53.57
2022-11-08T00:45:52.192Z,53.57
2022-11-08T00:48:19.528Z,53.60
2022-11-08T00:50:46.720Z,53.34
2022-11-08T00:53:13.774Z,53.22
2022-11-08T00:55:40.836Z,53.07
2022-11-08T00:58:07.963Z,53.21
2022-11-08T01:00:35.035Z,53.06
2022-11-08T01:03:20.180Z,53.12
2022-11-08T01:05:48.716Z,53.25
2022-11-08T01:08:17.224Z,53.32
2022-11-08T01:10:47.803Z,53.32
2022-11-08T01:13:15.200Z,53.73
2022-11-08T01:15:45.420Z,53.90
2022-11-08T01:18:15.902Z,53.85
2022-11-08T01:20:45.859Z,53.99
2022-11-08T01:23:14.396Z,53.90
2022-11-08T01:25:45.029Z,53.99
2022-11-08T01:28:13.111Z,53.69
2022-11-08T01:30:42.734Z,53.62
2022-11-08T01:33:10.761Z,53.73
2022-11-08T01:35:39.042Z,53.87
2022-11-08T01:38:07.509Z,54.05
2022-11-08T01:40:42.662Z,54.00
2022-11-08T01:43:42.526Z,54.10
2022-11-08T01:46:18.750Z,54.26
2022-11-08T01:48:48.853Z,54.48
2022-11-08T01:51:21.352Z,54.67
2022-11-08T01:53:49.259Z,54.81
2022-11-08T01:56:16.915Z,55.16
2022-11-08T01:58:48.875Z,55.51
2022-11-08T02:01:16.236Z,55.78
2022-11-08T02:03:43.619Z,55.33
2022-11-08T02:06:12.034Z,55.82
2022-11-08T02:08:42.031Z,56.18
2022-11-08T02:11:14.014Z,56.60
2022-11-08T02:13:41.895Z,57.13
2022-11-08T02:16:15.671Z,57.21
2022-11-08T02:18:46.261Z,57.57
2022-11-08T02:21:27.757Z,57.79
2022-11-08T02:24:01.057Z,57.75
2022-11-08T02:26:36.418Z,57.90
2022-11-08T02:29:34.240Z,57.81
2022-11-08T02:32:02.921Z,57.77
2022-11-08T02:34:54.504Z,58.14
2022-11-08T02:37:23.701Z,58.34
2022-11-08T02:39:50.777Z,58.37
2022-11-08T02:42:20.426Z,58.31
2022-11-08T02:44:48.285Z,58.58
2022-11-08T02:47:16.071Z,58.49
2022-11-08T02:49:43.280Z,58.97
2022-11-08T02:52:10.719Z,59.00
2022-11-08T02:54:37.872Z,59.27
2022-11-08T02:57:04.974Z,59.32
2022-11-08T02:59:32.046Z,59.65
2022-11-08T03:01:59.416Z,59.65
2022-11-08T03:04:26.679Z,59.86
2022-11-08T03:06:53.747Z,59.97
2022-11-08T03:09:20.858Z,60.03
2022-11-08T03:11:48.007Z,60.05
2022-11-08T03:14:15.176Z,60.21
2022-11-08T03:16:42.278Z,60.23
2022-11-08T03:19:11.859Z,60.12
2022-11-08T03:21:39.023Z,60.53
2022-11-08T03:24:06.680Z,60.34
2022-11-08T03:26:33.822Z,60.41
2022-11-08T03:29:01.014Z,60.54
2022-11-08T03:31:28.223Z,60.65
2022-11-08T03:33:55.343Z,60.09
2022-11-08T03:36:22.403Z,60.44
2022-11-08T03:38:50.852Z,60.47
2022-11-08T03:41:17.912Z,60.90
2022-11-08T03:43:44.961Z,61.08
2022-11-08T03:46:12.114Z,60.48
2022-11-08T03:48:39.176Z,60.41
2022-11-08T03:51:06.407Z,60.34
2022-11-08T03:53:33.477Z,60.43
2022-11-08T03:56:01.278Z,60.85
2022-11-08T03:58:28.412Z,61.02
2022-11-08T04:00:55.519Z,61.23
2022-11-08T04:03:22.593Z,61.57
2022-11-08T04:05:49.609Z,61.80
2022-11-08T04:08:16.900Z,61.78
2022-11-08T04:10:44.143Z,61.86
2022-11-08T04:13:29.492Z,61.64
2022-11-08T04:15:58.072Z,61.79
2022-11-08T04:18:43.473Z,62.13
2022-11-08T04:21:20.302Z,62.35
2022-11-08T04:23:51.355Z,62.10
2022-11-08T04:26:19.960Z,61.96
2022-11-08T04:28:47.116Z,61.97
2022-11-08T04:31:18.115Z,61.99
2022-11-08T04:33:45.976Z,62.23
2022-11-08T04:36:16.357Z,62.58
2022-11-08T04:38:43.742Z,62.66
2022-11-08T04:41:14.053Z,62.44
2022-11-08T04:43:42.018Z,62.63
2022-11-08T04:46:12.606Z,62.58
2022-11-08T04:48:40.205Z,62.24
2022-11-08T04:51:14.654Z,62.48
2022-11-08T04:53:41.990Z,62.43
2022-11-08T04:56:15.786Z,62.61
2022-11-08T04:58:46.284Z,62.58
2022-11-08T05:01:17.422Z,62.95
2022-11-08T05:03:47.048Z,63.02
2022-11-08T05:06:18.063Z,62.92
2022-11-08T05:08:45.490Z,62.93
2022-11-08T05:11:16.764Z,63.06
2022-11-08T05:13:44.162Z,62.70
2022-11-08T05:16:16.412Z,62.75
2022-11-08T05:18:44.417Z,62.83
2022-11-08T05:21:33.324Z,62.97
2022-11-08T05:24:01.763Z,63.12
2022-11-08T05:26:29.776Z,63.25
2022-11-08T05:28:56.863Z,62.89
2022-11-08T05:31:24.018Z,63.04
2022-11-08T05:33:52.916Z,63.22
2022-11-08T05:36:20.165Z,63.45
2022-11-08T05:38:47.280Z,63.45
2022-11-08T05:41:20.879Z,63.26
2022-11-08T05:43:50.781Z,62.84
2022-11-08T05:46:19.642Z,62.98
2022-11-08T05:48:48.250Z,62.95
2022-11-08T05:51:17.440Z,63.60
2022-11-08T05:53:46.912Z,63.47
2022-11-08T05:56:14.010Z,63.27
2022-11-08T05:58:41.066Z,63.64
2022-11-08T06:01:19.765Z,63.51
2022-11-08T06:03:48.121Z,63.67
2022-11-08T06:06:21.253Z,63.70
2022-11-08T06:08:50.873Z,63.42
2022-11-08T06:11:26.517Z,63.04
2022-11-08T06:13:54.951Z,63.07
2022-11-08T06:16:24.045Z,63.07
2022-11-08T06:18:51.525Z,63.08
2022-11-08T06:21:21.449Z,63.04
2022-11-08T06:23:52.028Z,63.22
2022-11-08T06:26:19.232Z,63.26
2022-11-08T06:28:46.295Z,63.33
2022-11-08T06:31:13.361Z,63.61
2022-11-08T06:33:40.437Z,63.53
2022-11-08T06:36:08.168Z,63.31
2022-11-08T06:38:35.250Z,63.41
2022-11-08T06:41:03.331Z,63.29
2022-11-08T06:43:30.419Z,63.11
2022-11-08T06:46:05.297Z,62.87
2022-11-08T06:48:35.950Z,62.69
2022-11-08T06:51:04.399Z,62.46
2022-11-08T06:53:31.609Z,62.07
2022-11-08T06:56:02.557Z,62.18
2022-11-08T06:58:30.717Z,61.83
2022-11-08T07:00:57.897Z,61.68
2022-11-08T07:03:24.929Z,61.32
2022-11-08T07:05:53.661Z,61.30
2022-11-08T07:08:23.922Z,60.94
2022-11-08T07:10:51.856Z,60.81
2022-11-08T07:13:19.295Z,60.75
2022-11-08T07:15:48.127Z,60.55
2022-11-08T07:18:18.063Z,60.40
2022-11-08T07:20:45.646Z,60.49
2022-11-08T07:23:13.173Z,60.07
2022-11-08T07:25:40.352Z,59.99
2022-11-08T07:28:14.257Z,59.69
2022-11-08T07:30:41.316Z,59.83
2022-11-08T07:33:08.362Z,59.72
2022-11-08T07:35:35.505Z,59.61
2022-11-08T07:38:02.585Z,59.09
2022-11-08T07:40:30.157Z,59.07
2022-11-08T07:43:16.251Z,58.77
2022-11-08T07:45:45.214Z,58.36
2022-11-08T07:48:13.999Z,57.89
2022-11-08T07:50:42.463Z,57.34
2022-11-08T07:53:10.444Z,57.32
2022-11-08T07:55:38.863Z,57.03
2022-11-08T07:58:07.307Z,56.79
2022-11-08T08:00:37.717Z,56.47
2022-11-08T08:03:07.191Z,56.58
2022-11-08T08:05:39.205Z,56.50
2022-11-08T08:08:07.229Z,55.98
2022-11-08T08:10:35.961Z,55.91
2022-11-08T08:13:03.879Z,55.89
2022-11-08T08:15:30.998Z,55.78
2022-11-08T08:18:01.763Z,55.89
2022-11-08T08:20:29.924Z,55.50
2022-11-08T08:22:57.325Z,55.17
2022-11-08T08:25:24.757Z,55.05
2022-11-08T08:27:56.330Z,54.95
2022-11-08T08:30:25.084Z,54.47
2022-11-08T08:33:14.786Z,54.69
2022-11-08T08:35:40.679Z,54.46
2022-11-08T08:38:07.790Z,54.14
2022-11-08T08:40:35.005Z,54.10
2022-11-08T08:43:05.028Z,53.96
2022-11-08T08:45:33.714Z,54.06
2022-11-08T08:48:01.594Z,54.07
2022-11-08T08:50:31.816Z,54.49
2022-11-08T08:53:01.269Z,54.16
2022-11-08T08:55:28.907Z,53.86
2022-11-08T08:57:56.832Z,53.47
2022-11-08T09:03:12.323Z,53.03
2022-11-08T09:05:44.195Z,53.11
2022-11-08T09:08:12.831Z,52.80
2022-11-08T09:10:40.127Z,53.00
2022-11-08T09:13:07.180Z,52.76
2022-11-08T09:15:34.293Z,52.70
2022-11-08T09:18:01.434Z,52.81
2022-11-08T09:20:28.631Z,52.60
2022-11-08T09:22:55.804Z,52.56
2022-11-08T09:25:22.955Z,52.44
2022-11-08T09:27:50.101Z,52.26
2022-11-08T09:30:17.226Z,52.02
2022-11-08T09:33:00.181Z,51.76
2022-11-08T09:35:29.491Z,51.59
2022-11-08T09:37:57.577Z,51.57
2022-11-08T09:41:06.548Z,51.44
2022-11-08T09:44:18.700Z,51.01
2022-11-08T09:46:57.989Z,50.82
2022-11-08T09:49:34.687Z,50.58
2022-11-08T09:52:04.629Z,51.10
2022-11-08T09:54:44.369Z,50.37
2022-11-08T09:57:27.816Z,49.97
2022-11-08T10:00:06.784Z,49.74
2022-11-08T10:02:35.073Z,49.58
2022-11-08T10:05:12.801Z,49.29
2022-11-08T10:08:08.823Z,49.18
2022-11-08T10:11:17.568Z,48.87
2022-11-08T10:14:06.386Z,48.55
2022-11-08T10:17:07.301Z,48.73
2022-11-08T10:20:10.123Z,48.77
2022-11-08T10:23:07.987Z,48.82
2022-11-08T10:25:45.717Z,48.16
2022-11-08T10:28:19.476Z,48.07
2022-11-08T10:30:52.416Z,47.83
2022-11-08T10:33:33.488Z,47.82
2022-11-08T10:36:21.505Z,47.79
2022-11-08T10:39:09.317Z,47.28
2022-11-08T10:41:58.401Z,47.11
2022-11-08T10:44:28.357Z,46.45
2022-11-08T10:46:58.145Z,46.14
2022-11-08T10:49:34.995Z,45.45
2022-11-08T10:52:29.087Z,44.35
2022-11-08T10:54:58.432Z,42.57
2022-11-08T10:57:31.246Z,40.50
2022-11-08T11:00:21.374Z,37.82
2022-11-08T11:03:11.725Z,36.82
2022-11-08T11:05:43.728Z,35.43
2022-11-08T11:08:10.732Z,33.66
2022-11-08T11:10:51.483Z,31.49
2022-11-08T11:13:18.672Z,32.17
2022-11-08T11:15:58.493Z,31.37
2022-11-08T11:18:32.337Z,32.30
2022-11-08T11:21:32.028Z,31.08
2022-11-08T11:24:19.411Z,30.15
2022-11-08T11:27:12.289Z,30.45
2022-11-08T11:29:39.667Z,29.04
2022-11-08T11:32:33.014Z,29.33
2022-11-08T11:35:03.373Z,28.82
2022-11-08T11:37:46.235Z,28.88
2022-11-08T11:40:26.710Z,27.87
2022-11-08T11:43:05.819Z,28.74
2022-11-08T11:45:37.372Z,28.88
2022-11-08T11:48:28.458Z,28.50
2022-11-08T11:50:57.298Z,28.68
2022-11-08T11:53:32.925Z,27.96
2022-11-08T11:56:37.936Z,28.07
2022-11-08T11:59:30.984Z,27.47
2022-11-08T12:02:28.977Z,26.37
2022-11-08T12:05:13.580Z,25.77
2022-11-08T12:08:15.852Z,25.23
2022-11-08T12:11:07.807Z,25.10
2022-11-08T12:14:01.755Z,24.85
2022-11-08T12:17:26.851Z,24.56
2022-11-08T12:20:12.395Z,24.72
2022-11-08T12:23:07.835Z,24.48
2022-11-08T12:26:13.039Z,24.92
2022-11-08T12:29:23.270Z,25.84
2022-11-08T12:32:21.734Z,25.57
2022-11-08T12:35:35.681Z,25.68
2022-11-08T12:38:27.962Z,25.12
2022-11-08T12:41:07.436Z,23.66
2022-11-08T12:44:19.202Z,23.42
2022-11-08T12:47:04.806Z,24.00
2022-11-08T12:49:37.565Z,25.05
2022-11-08T12:52:16.607Z,25.05
2022-11-08T12:55:10.206Z,24.28
2022-11-08T12:57:38.449Z,24.03
2022-11-08T13:00:21.143Z,24.56
2022-11-08T13:03:12.268Z,24.83
2022-11-08T13:05:57.559Z,24.40
2022-11-08T13:08:38.202Z,25.18
2022-11-08T13:11:11.181Z,25.54
2022-11-08T13:13:57.092Z,25.93
2022-11-08T13:16:35.372Z,25.46
2022-11-08T13:19:05.866Z,25.68
2022-11-08T13:21:41.032Z,25.99
2022-11-08T13:24:37.915Z,27.03
2022-11-08T13:27:38.317Z,26.74
2022-11-08T13:30:11.534Z,25.70
2022-11-08T13:33:00.909Z,25.20
2022-11-08T13:35:57.114Z,25.12
2022-11-08T13:38:38.097Z,25.59
2022-11-08T13:41:24.519Z,24.96
2022-11-08T13:43:55.220Z,24.61
2022-11-08T13:46:30.873Z,24.48
2022-11-08T13:49:05.370Z,25.08
2022-11-08T13:51:40.920Z,25.32
2022-11-08T13:54:23.315Z,26.95
2022-11-08T13:56:56.056Z,28.25
2022-11-08T13:59:32.229Z,30.31
2022-11-08T14:01:59.707Z,31.99
2022-11-08T14:04:40.868Z,32.88
2022-11-08T14:07:32.452Z,33.13
2022-11-08T14:10:11.779Z,32.18
2022-11-08T14:13:17.051Z,31.84
2022-11-08T14:16:13.222Z,31.91
2022-11-08T14:18:40.341Z,32.63
2022-11-08T14:21:08.136Z,32.86
2022-11-08T14:23:38.034Z,33.09
2022-11-08T14:26:20.983Z,34.06
2022-11-08T14:28:50.657Z,34.56
2022-11-08T14:31:33.464Z,34.78
2022-11-08T14:34:01.724Z,35.25
2022-11-08T14:36:31.239Z,35.90
2022-11-08T14:39:17.824Z,36.18
2022-11-08T14:41:53.761Z,36.33
2022-11-08T14:44:21.942Z,36.95
2022-11-08T14:46:49.591Z,37.50
2022-11-08T14:49:22.955Z,37.78
2022-11-08T14:52:18.766Z,38.64
2022-11-08T14:54:48.550Z,38.94
2022-11-08T14:57:37.275Z,38.99
2022-11-08T15:00:13.195Z,39.39
2022-11-08T15:02:45.120Z,39.86
2022-11-08T15:05:31.174Z,40.31
2022-11-08T15:08:04.075Z,40.71
2022-11-08T15:10:31.297Z,41.10
2022-11-08T15:12:58.653Z,41.50
2022-11-08T15:15:31.564Z,41.97
2022-11-08T15:18:17.491Z,42.48
2022-11-08T15:21:04.366Z,43.20
2022-11-08T15:23:50.539Z,43.63
2022-11-08T15:26:23.957Z,44.33
2022-11-08T15:29:17.261Z,45.42
2022-11-08T15:31:57.046Z,46.05
2022-11-08T15:34:38.290Z,46.77
2022-11-08T15:37:28.231Z,47.51
2022-11-08T15:39:56.000Z,47.87
2022-11-08T15:42:23.433Z,48.22
2022-11-08T15:45:12.432Z,48.55
2022-11-08T15:47:47.176Z,48.77
2022-11-08T15:50:30.492Z,48.86
2022-11-08T15:53:01.719Z,49.31
2022-11-08T15:55:31.056Z,49.61
2022-11-08T15:57:59.368Z,49.63
2022-11-08T16:00:33.254Z,49.99
2022-11-08T16:03:00.451Z,50.02
2022-11-08T16:05:32.032Z,50.36
2022-11-08T16:07:59.766Z,50.28
2022-11-08T16:10:37.172Z,50.71
2022-11-08T16:13:04.746Z,50.90
2022-11-08T16:15:35.097Z,50.94
2022-11-08T16:18:02.706Z,51.08
2022-11-08T16:20:37.761Z,51.20
2022-11-08T16:23:08.008Z,51.28
2022-11-08T16:25:42.534Z,51.41
2022-11-08T16:28:28.649Z,51.26
2022-11-08T16:30:56.757Z,51.32
2022-11-08T16:33:27.412Z,51.49
2022-11-08T16:35:58.127Z,51.69
2022-11-08T16:38:30.217Z,51.80
2022-11-08T16:40:57.433Z,51.79
2022-11-08T16:43:24.606Z,51.96
2022-11-08T16:46:04.846Z,52.04
2022-11-08T16:48:34.066Z,52.31
2022-11-08T16:51:05.092Z,52.29
2022-11-08T16:53:32.952Z,52.41
2022-11-08T16:56:00.088Z,52.22
2022-11-08T16:58:30.372Z,52.25
2022-11-08T17:00:57.689Z,52.20
2022-11-08T17:03:29.679Z,51.81
2022-11-08T17:05:57.931Z,51.47
2022-11-08T17:08:25.342Z,51.53
2022-11-08T17:10:53.819Z,51.68
2022-11-08T17:13:22.424Z,51.74
2022-11-08T17:15:50.888Z,52.07
2022-11-08T17:18:21.288Z,52.45
2022-11-08T17:20:49.024Z,52.46
2022-11-08T17:23:16.470Z,52.63
2022-11-08T17:25:44.656Z,52.92
2022-11-08T17:28:13.322Z,53.20
2022-11-08T17:30:44.423Z,53.17
2022-11-08T17:33:13.349Z,53.97
2022-11-08T17:35:43.941Z,54.29
2022-11-08T17:38:12.764Z,54.21
2022-11-08T17:40:42.392Z,54.28
2022-11-08T17:43:09.879Z,54.29
2022-11-08T17:45:37.037Z,54.62
2022-11-08T17:48:04.171Z,54.71
2022-11-08T17:50:31.262Z,54.97
2022-11-08T17:52:58.361Z,55.15
2022-11-08T17:55:25.406Z,55.13
2022-11-08T17:57:52.452Z,55.24
2022-11-08T18:00:19.863Z,55.06
2022-11-08T18:02:46.977Z,55.15
2022-11-08T18:05:14.096Z,55.19
2022-11-08T18:07:41.192Z,55.02
2022-11-08T18:10:09.305Z,55.15
2022-11-08T18:12:37.617Z,55.27
2022-11-08T18:15:06.271Z,55.50
2022-11-08T18:17:33.700Z,55.64
2022-11-08T18:20:01.124Z,55.84
2022-11-08T18:22:28.193Z,55.71
2022-11-08T18:24:55.461Z,55.81
2022-11-08T18:27:22.476Z,55.80
2022-11-08T18:29:49.589Z,55.96
2022-11-08T18:32:16.652Z,55.96
2022-11-08T18:34:43.878Z,55.93
2022-11-08T18:37:10.950Z,55.98
2022-11-08T18:39:38.127Z,55.75
2022-11-08T18:42:05.283Z,55.95
2022-11-08T18:44:32.442Z,55.82
2022-11-08T18:46:59.519Z,55.59
2022-11-08T18:49:28.097Z,55.41
2022-11-08T18:51:56.803Z,55.24
2022-11-08T18:54:24.007Z,55.10
2022-11-08T18:56:51.011Z,55.00
2022-11-08T18:59:18.266Z,55.18
2022-11-08T19:01:45.457Z,55.15
2022-11-08T19:04:12.545Z,55.00
2022-11-08T19:06:40.245Z,54.95
2022-11-08T19:09:07.446Z,54.79
2022-11-08T19:11:34.550Z,54.79
2022-11-08T19:14:02.196Z,54.72
2022-11-08T19:16:29.580Z,54.71
2022-11-08T19:18:56.690Z,54.86
2022-11-08T19:21:26.551Z,54.62
2022-11-08T19:23:58.855Z,54.10
2022-11-08T19:26:28.584Z,54.27
2022-11-08T19:28:57.388Z,53.84
2022-11-08T19:31:25.885Z,54.06
2022-11-08T19:33:54.670Z,54.22
2022-11-08T19:36:28.501Z,54.00
2022-11-08T19:38:57.864Z,54.18
2022-11-08T19:41:28.289Z,53.99
2022-11-08T19:43:55.479Z,54.33
2022-11-08T19:46:29.289Z,54.23
2022-11-08T19:48:57.114Z,54.39
2022-11-08T19:51:27.496Z,54.48
2022-11-08T19:53:59.595Z,54.28
2022-11-08T19:56:43.783Z,54.68
2022-11-08T19:59:14.833Z,54.41
2022-11-08T20:01:41.997Z,54.45
2022-11-08T20:04:11.534Z,54.48
2022-11-08T20:06:39.719Z,54.36
2022-11-08T20:09:09.304Z,54.62
2022-11-08T20:11:38.412Z,54.46
2022-11-08T20:14:06.652Z,54.75
2022-11-08T20:16:41.911Z,54.60
2022-11-08T20:19:14.760Z,54.45
2022-11-08T20:21:45.703Z,54.29
2022-11-08T20:24:13.320Z,54.35
2022-11-08T20:26:41.423Z,54.43
2022-11-08T20:29:09.228Z,54.47
2022-11-08T20:31:36.907Z,54.55
2022-11-08T20:34:07.581Z,54.48
2022-11-08T20:36:37.446Z,54.47
2022-11-08T20:39:07.668Z,54.64
2022-11-08T20:41:37.681Z,54.99
2022-11-08T20:44:10.191Z,55.08
2022-11-08T20:46:38.113Z,54.96
2022-11-08T20:49:05.667Z,54.59
2022-11-08T20:51:33.793Z,54.67
2022-11-08T20:54:01.655Z,55.25
2022-11-08T20:56:29.474Z,55.17
2022-11-08T20:58:56.931Z,55.00
2022-11-08T21:01:28.259Z,55.13
2022-11-08T21:03:56.375Z,55.57
2022-11-08T21:06:26.606Z,55.70
2022-11-08T21:09:00.989Z,55.78
2022-11-08T21:11:34.553Z,55.83
2022-11-08T21:14:03.527Z,56.08
2022-11-08T21:16:38.213Z,56.28
2022-11-08T21:19:14.414Z,56.51
2022-11-08T21:21:41.946Z,56.45
2022-11-08T21:24:09.283Z,56.03
2022-11-08T21:26:36.878Z,55.82
2022-11-08T21:29:06.026Z,55.56
2022-11-08T21:31:33.850Z,55.77
2022-11-08T21:34:01.265Z,55.89
2022-11-08T21:36:29.249Z,55.31
2022-11-08T21:38:56.484Z,55.08
2022-11-08T21:41:23.719Z,54.94
2022-11-08T21:43:50.775Z,54.69
2022-11-08T21:46:24.527Z,54.71
2022-11-08T21:49:01.758Z,54.52
2022-11-08T21:51:30.250Z,54.42
2022-11-08T21:53:59.056Z,54.30
2022-11-08T21:56:33.828Z,54.10
2022-11-08T21:59:02.198Z,54.45
2022-11-08T22:01:30.851Z,54.75
2022-11-08T22:04:00.133Z,54.77
2022-11-08T22:06:28.552Z,54.69
2022-11-08T22:08:56.026Z,54.52
2022-11-08T22:11:23.228Z,54.56
2022-11-08T22:13:50.422Z,54.20
2022-11-08T22:16:17.712Z,54.10
2022-11-08T22:21:38.409Z,53.92
2022-11-08T22:24:13.953Z,53.95
2022-11-08T22:26:41.862Z,54.26
2022-11-08T22:29:09.796Z,54.28
2022-11-08T22:31:37.670Z,54.53
2022-11-08T22:34:06.518Z,54.62
2022-11-08T22:36:33.990Z,54.78
2022-11-08T22:39:01.279Z,54.77
2022-11-08T22:41:28.628Z,54.93
2022-11-08T22:43:55.982Z,55.22
2022-11-08T22:46:23.365Z,55.33
2022-11-08T22:48:50.772Z,55.58
2022-11-08T22:51:18.050Z,55.28
2022-11-08T22:53:45.312Z,55.29
2022-11-08T22:56:13.095Z,54.88
2022-11-08T22:58:40.294Z,54.63
2022-11-08T23:01:11.532Z,54.80
2022-11-08T23:03:39.212Z,54.65
2022-11-08T23:06:07.086Z,54.52
2022-11-08T23:08:34.190Z,54.50
2022-11-08T23:11:20.652Z,54.50
2022-11-08T23:14:06.609Z,54.48
2022-11-08T23:16:36.040Z,54.48
2022-11-08T23:19:45.554Z,54.31
2022-11-08T23:22:35.180Z,54.45
2022-11-08T23:25:05.651Z,54.48
2022-11-08T23:27:53.085Z,54.35
2022-11-08T23:30:39.258Z,54.49
2022-11-08T23:33:07.316Z,54.39
2022-11-08T23:35:34.746Z,54.62
2022-11-08T23:38:01.904Z,54.70
2022-11-08T23:40:47.327Z,54.71
2022-11-08T23:43:38.228Z,54.97
2022-11-08T23:46:12.226Z,55.42
2022-11-08T23:48:40.449Z,55.46
2022-11-08T23:51:08.392Z,55.55
2022-11-08T23:53:37.524Z,55.42
2022-11-08T23:56:05.673Z,55.82
2022-11-08T23:58:33.552Z,55.91
